FW1478 Weather Reports


time (UTC)temp
F
wind
direction
speed
knots
gust
knots
rain 1hr
in
rain 24hr
in
rain mn
in
humidity
%
barometer
mb
20190423110004 44 45 1.7 5.2 0.01 0.40 0.19 93 1015.9
20190423104502 44 33 1.7 6.1 0.01 0.40 0.19 94 1015.8
20190423103245 44 3 0.9 4.3 0.01 0.40 0.19 94 1015.6
20190423101717 44 39 0.9 6.1 0.01 0.40 0.19 94 1015.7
20190423100211 45 20 1.7 6.1 0.00 0.39 0.18 93 1015.7
20190423094627 45 57 0.9 6.1 0.00 0.39 0.18 94 1015.7
20190423093129 45 20 1.7 6.1 0.00 0.39 0.18 94 1015.6
20190423091641 45 32 1.7 4.3 0.00 0.39 0.18 93 1015.7
20190423090118 45 20 1.7 5.2 0.00 0.39 0.18 93 1015.8
20190423084619 46 45 1.7 5.2 0.00 0.39 0.18 92 1015.8
20190423083140 46 344 1.7 6.1 0.00 0.39 0.18 92 1015.7
20190423081635 46 4 2.6 6.1 0.00 0.39 0.18 92 1015.8
20190423080105 46 16 2.6 7.8 0.00 0.39 0.18 92 1015.3
20190423074654 47 356 1.7 8.7 0.00 0.39 0.18 92 1015.4
20190423073113 47 22 2.6 7.0 0.00 0.39 0.18 92 1015.8
20190423071553 47 41 4.3 7.8 0.01 0.39 0.18 93 1015.9
20190423070126 48 11 1.7 6.1 0.02 0.40 0.18 93 1016.0
20190423064539 48 60 2.6 5.2 0.04 0.40 0.18 94 1015.7
20190423063043 49 335 2.6 6.1 0.05 0.40 0.18 94 1016.0
20190423061551 49 30 1.7 6.1 0.05 0.39 0.17 94 1016.2
20190423060054 49 31 2.6 6.1 0.05 0.38 0.16 94 1016.3
20190423054547 49 22 2.6 5.2 0.07 0.36 0.14 94 1016.5
20190423053049 49 27 1.7 6.1 0.10 0.35 0.13 94 1016.7
20190423051536 49 4 1.7 4.3 0.11 0.34 0.12 94 1017.0
20190423050029 49 357 2.6 7.0 0.11 0.33 0.11 94 1017.1
20190423044538 49 20 1.7 5.2 0.09 0.28 0.06 94 1017.2
20190423043043 49 349 2.6 6.1 0.08 0.25 0.03 93 1017.4
20190423041536 49 359 0.9 5.2 0.10 0.23 0.01 93 1017.5
20190423040005 49 26 1.7 5.2 0.14 0.22 0.22 93 1017.6
20190423034511 49 317 3.5 7.0 0.15 0.19 0.19 92 1017.6
20190423033245 49 53 1.7 5.2 0.14 0.17 0.17 92 1017.7
20190423031655 50 13 2.6 5.2 0.10 0.13 0.13 91 1017.9
20190423030218 50 13 1.7 5.2 0.05 0.08 0.08 89 1017.8
20190423024624 51 12 0.9 6.1 0.02 0.04 0.04 88 1018.0
20190423023147 51 32 1.7 5.2 0.02 0.03 0.03 87 1018.1
20190423021650 52 48 1.7 4.3 0.02 0.03 0.03 88 1018.3
20190423020238 52 29 1.7 4.3 0.01 0.02 0.02 88 1018.5
20190423014625 53 13 1.7 4.3 0.01 0.02 0.02 86 1018.7
20190423013143 54 42 0.9 3.5 0.00 0.01 0.01 87 1018.7
20190423011641 56 25 0.0 1.7 0.00 0.01 0.01 86 1018.8
20190423010120 56 11 0.9 4.3 0.00 0.01 0.01 81 1018.7
20190423004649 57 15 1.7 7.0 0.00 0.01 0.01 81 1018.4
20190423003143 57 8 0.9 5.2 0.00 0.01 0.01 80 1018.3
20190423001616 57 28 1.7 6.1 0.00 0.01 0.01 80 1018.3
20190423000134 57 72 1.7 7.0 0.00 0.01 0.01 80 1018.4
20190422234639 57 108 0.9 4.3 0.00 0.01 0.01 81 1018.5
20190422233134 57 331 1.7 6.1 0.00 0.01 0.01 81 1018.7
20190422231657 58 359 1.7 7.0 0.00 0.01 0.01 81 1018.6
20190422230156 58 53 0.0 5.2 0.00 0.01 0.01 81 1018.4
20190422224649 59 38 1.7 9.6 0.00 0.01 0.01 80 1018.2
20190422223151 60 359 0.9 4.3 0.00 0.01 0.01 79 1017.9
20190422221604 60 27 0.0 2.6 0.00 0.01 0.01 79 1017.9
20190422220136 60 45 1.7 5.2 0.00 0.01 0.01 79 1018.1
20190422214602 60 18 0.9 2.6 0.00 0.01 0.01 78 1018.6
20190422213112 60 2 0.9 7.8 0.00 0.01 0.01 77 1018.9
20190422211633 61 27 0.9 5.2 0.00 0.01 0.01 76 1019.0
20190422210042 61 60 1.7 7.8 0.00 0.01 0.01 75 1019.3
20190422204555 62 62 1.7 6.1 0.00 0.01 0.01 74 1019.7
20190422203057 62 44 1.7 5.2 0.00 0.01 0.01 73 1019.6
20190422201546 63 37 0.9 4.3 0.00 0.01 0.01 75 1019.4
20190422200142 63 54 1.7 6.1 0.00 0.04 0.01 73 1019.4
20190422194644 62 39 0.9 4.3 0.00 0.04 0.01 75 1019.2
20190422193113 62 17 0.9 6.1 0.00 0.04 0.01 76 1019.5
20190422191550 62 22 2.6 7.0 0.00 0.04 0.01 74 1019.7
20190422190053 63 309 2.6 7.8 0.00 0.04 0.01 73 1019.7
20190422184535 63 6 0.0 5.2 0.00 0.04 0.01 75 1019.6
20190422183042 63 292 1.7 6.1 0.00 0.04 0.01 74 1019.6
20190422181536 63 329 1.7 6.1 0.00 0.04 0.01 74 1019.5
20190422180040 62 28 1.7 7.8 0.00 0.04 0.01 75 1019.9
20190422174537 61 23 1.7 6.1 0.00 0.04 0.01 77 1020.1
20190422173031 60 23 0.9 7.0 0.00 0.04 0.01 78 1020.6
20190422171602 60 28 1.7 8.7 0.00 0.04 0.01 80 1020.5
20190422170025 60 354 1.7 5.2 0.00 0.05 0.01 81 1020.5
20190422164520 59 90 1.7 3.5 0.00 0.05 0.01 84 1020.5
20190422163008 57 11 0.9 4.3 0.00 0.05 0.01 89 1020.7
20190422161506 56 29 0.9 4.3 0.00 0.05 0.01 89 1020.8
20190422160006 56 7 2.6 3.5 0.00 0.07 0.01 89 1021.1
20190422154533 57 15 1.7 4.3 0.00 0.07 0.01 88 1021.1
20190422153008 57 45 1.7 5.2 0.00 0.07 0.01 87 1021.1
20190422151502 57 34 0.9 3.5 0.00 0.07 0.01 88 1021.1
20190422150214 57 7 0.0 2.6 0.00 0.07 0.01 89 1021.3
20190422144651 56 359 1.7 4.3 0.00 0.07 0.01 89 1021.3
20190422143240 56 18 0.9 4.3 0.00 0.07 0.01 90 1021.4
20190422141654 56 33 2.6 5.2 0.00 0.07 0.01 90 1021.4
20190422140135 55 117 0.0 1.7 0.00 0.07 0.01 94 1021.3
20190422134636 54 2 0.9 4.3 0.00 0.07 0.01 94 1021.3
20190422133143 54 27 0.9 2.6 0.00 0.07 0.01 96 1021.3
20190422131645 53 35 0.9 3.5 0.00 0.07 0.01 96 1021.2
20190422130126 53 18 0.9 1.7 0.00 0.07 0.01 97 1021.1
20190422124616 53 46 0.0 3.5 0.00 0.07 0.01 97 1021.2
20190422123126 53 310 0.0 1.7 0.00 0.07 0.01 97 1020.9
20190422121555 52 24 0.0 1.7 0.00 0.07 0.01 97 1020.8
20190422120145 52 83 0.0 1.7 0.00 0.07 0.01 97 1020.8
20190422114608 51 290 0.0 0.9 0.00 0.07 0.01 97 1020.8
20190422113044 51 26 0.0 0.9 0.00 0.07 0.01 97 1020.8
20190422111618 51 32 0.0 0.9 0.00 0.07 0.01 97 1020.7